Logo AVAMET
Benvolgut visitant, si us plau, ingressa Recuperar contrasenya

Traiguera

Dades diàries. Acumulats / Últims 30 dies disponibles

Data Temperatura (°C) Humitat rel. (%) Pressió rel. (hPa) Vent (km/h) Precipitació
Mínima Mitjana Màxima Amplitud
tèrmica
Mínima Mitjana Màxima Mínima Mitjana Màxima Predom. Mitjana Ràfega
màxima
Total
(mm)
Índex-n
Mínima Mitjana Màxima Mínima Mitjana Màxima n
0 a 1
P0 max
mm 5'
Dades mensuals acumulades fins l'últim dia disponible
01/2020 2,1 4,8 7,5 8,5 8,2 13,0 18,2 16,1 37 78 97 1.017 1.027 1.035   4,5 59,5 161,2
Dades anuals acumulades fins l'últim dia disponible
2020 2,1 4,8 7,5 8,5 8,2 13,0 18,2 16,1 37 78 97 1.017 1.027 1.035   4,5 59,5 161,2
Últims 30 dies disponibles
25-01-2020 7,5     9,5     12,4 4,9 83 92 96 1.019 1.021 1.023 N 1,3 12,9 0,0
24-01-2020 5,0     9,2     14,9 9,9 61 87 95 1.021 1.023 1.025 N 2,7 17,7 0,0
23-01-2020 5,7     8,5     11,8 6,1 76 87 94 1.019 1.022 1.025 N 3,2 25,7 0,2
22-01-2020 7,0     9,3     12,8 5,8 82 90 97 1.018 1.021 1.023 N 5,5 29,0 14,4 0,65 5,40
21-01-2020 5,9     8,2     11,6 5,7 97 97 97 1.017 1.021 1.026 N 16,9 57,9 85,0 0,58 6,60
20-01-2020 3,7     4,9     8,2 4,5 47 88 97 1.025 1.026 1.027 N 16,1 59,5 37,4 0,18 0,60
19-01-2020 6,2     7,6     11,1 4,9 45 81 94 1.017 1.021 1.025 N 8,2 38,6 24,0 0,20 1,30
18-01-2020 6,8     9,9     13,4 6,6 59 71 89 1.020 1.028 1.033 N 3,2 22,5 0,0
17-01-2020 6,8     12,1     18,2 11,4 37 57 87 1.026 1.028 1.033 N 6,6 41,8 0,0
16-01-2020 6,1     10,1     16,3 10,2 55 76 95 1.027 1.028 1.030 N 2,7 17,7 0,0
15-01-2020 2,7     7,6     13,3 10,6 57 75 87 1.024 1.026 1.029 N 2,1 14,5 0,0
14-01-2020 3,0     7,2     13,7 10,7 41 67 89 1.022 1.023 1.025 N 2,6 14,5 0,0
13-01-2020 2,4     6,6     11,7 9,3 43 67 88 1.023 1.026 1.031 N 1,9 12,9 0,0
12-01-2020 2,3     6,9     12,7 10,4 46 66 82 1.030 1.031 1.032 N 1,9 12,9 0,0
11-01-2020 3,3     9,1     14,1 10,8 38 65 86 1.029 1.031 1.033 N 5,5 35,4 0,0
10-01-2020 6,2     9,6     11,2 5,0 55 70 93 1.025 1.027 1.030 N 10,5 56,3 0,0
09-01-2020 5,2     8,8     14,4 9,2 70 81 90 1.025 1.028 1.032 N 3,9 20,9 0,0
08-01-2020 4,6     9,3     15,4 10,8 56 80 97 1.029 1.031 1.034 N 1,3 16,1 0,2
07-01-2020 2,1     8,2     12,9 10,8 66 89 97 1.030 1.031 1.033 N 1,4 12,9 0,0
06-01-2020     8,4     13,4 13,4 70 82 95 1.029 1.030 1.032 N 1,6 17,7 0,0
05-01-2020     10,1     15,0 15,0 53 68 83 1.028 1.030 1.032 N 1,3 14,5 0,0
04-01-2020 4,7     10,6     14,4 9,7 53 67 94 1.032 1.033 1.035 N 5,8 38,6 0,0
03-01-2020 5,1     7,4     10,8 5,7 78 87 93 1.031 1.032 1.034 N 1,3 11,3 0,0
02-01-2020     7,9     12,5 12,5 71 84 93 1.032 1.033 1.035 N 2,4 17,7 0,0
01-01-2020 3,8     6,1     9,0 5,2 77 83 91 1.032 1.033 1.035 N 1,4 11,3 0,0
31-12-2019 4,4     7,2     11,7 7,3 73 82 91 1.033 1.034 1.036 N 2,2 14,5 0,0
30-12-2019 3,9     8,5     13,5 9,6 65 80 92 1.033 1.034 1.036 NW 1,6 16,1 0,0
29-12-2019 6,1     9,3     14,3 8,2 64 82 91 1.032 1.033 1.035 WSW 1,8 17,7 0,0
28-12-2019 3,9     8,4     13,9 10,0 61 85 95 1.030 1.031 1.034 WSW 1,1 14,5 0,0
27-12-2019 5,8     9,7     15,2 9,4 51 71 91 1.029 1.030 1.031 WSW 1,4 14,5 0,0
Últims 13 mesos disponibles
12/2019 3,9 9,0 15,4 12,4 11,2 16,3 24,1 20,2 41 70 93 1.001 1.019 1.034 NW 5,5 103,0 92,6
11/2019 4,2 10,0 17,3 13,3 11,8 17,3 25,8 21,6 48 59 81 996 1.010 1.018 WSW 8,5 90,1 4,0
10/2019 10,0 14,6 18,9 18,4 14,9 22,8 26,8 16,8 47 70 90 1.007 1.017 1.022 E 4,8 72,4 59,0
09/2019 13,0 17,7 22,0 21,7 20,7 26,1 29,7 16,7 43 69 90 1.010 1.019 1.027 E 5,7 62,8 44,0
08/2019 17,6 20,3 24,4 24,7 23,3 29,4 33,8 16,2 47 69 87 1.011 1.017 1.021 WNW 5,2 46,7 58,6
07/2019 18,3 20,6 23,0 25,6 26,5 30,7 36,6 18,3 36 60 75 1.006 1.015 1.022 WNW 5,8 56,3 11,4
06/2019 10,5 16,5 23,8 21,6 19,6 27,0 40,8 30,3 23 58 79 1.009 1.016 1.023 WNW 5,8 48,3 12,2
05/2019 7,8 12,5 16,4 17,2 15,3 22,1 27,2 19,4 37 60 90 1.005 1.015 1.025 SSE 7,7 62,8 14,0
04/2019 5,9 9,8 12,4 13,7 14,3 18,5 25,4 19,5 42 65 85 998 1.013 1.025 E 6,6 59,5 35,8
03/2019 5,4 8,7 12,3 13,5 12,0 18,7 24,8 19,4 38 53 88 1.010 1.023 1.029 E 6,0 82,1 8,0
02/2019 2,6 6,4 13,2 10,8 8,7 16,0 22,4 19,8 39 64 84 992 1.024 1.035 E 4,5 106,2 0,2
01/2019 2,3 6,2 11,8 9,9 8,9 13,9 20,7 18,4 21 55 78 1.000 1.018 1.032 W 8,1 93,3 2,8
12/2018 3,9 8,1 12,4 11,8 11,2 16,3 21,5 17,6 46 70 87 1.009 1.026 1.031 W 5,0 85,3 9,0
Tots els anys disponibles
2019 2,3 12,8 24,4 17,1 8,7 21,7 40,8 38,5 21 63 93 992 1.017 1.035 WNW 6,2 106,2 342,6
2018 0,7 12,8 26,3 16,8 5,7 21,3 36,6 35,9 W 6,7 106,2 982,8
2017 -0,2 12,5 22,9 16,8 6,6 21,6 35,8 36,0 W 6,4 106,2 288,2
2016
Temperatura (°C)
Humitat relativa (%)
Velocitat del vent i ràfega màxima (km/h)
Direcció del vent (°)
Pressió (hPa)
Precipitació (mm)
Nota sobre les dades: s'avisa a l'usuari de la provisionalitat i no oficialitat d'aquestes dades
Logo AVAMET blanc
Web allotjada a Sollutia
Llicència de Creative CommonsLa web d'AVAMET i els seus continguts estan subjectes a una llicència de
Reconeixement - No Comercial - Compartir igual
Últimes estacions: Xixona - Els Ameradors (Soci), Agres - El Tossal (Soci), Xàbia - Bevenguts (MeteoXàbia), Llíria (Aj. Soci/Inforatge), Orihuela - Lo Capitán, Cox & Guardamar del Segura - horta (Meteorihuela), l'Alcúdia - Carriona & el Real de Gandia (Inforatge), Benicàssim - les Vil·les (Soci),  l'Alfàs del Pi - l'Albir (Soci), - - -